VLG19YH LEMG-GCFV
Flight info
| Callsign | VLG19YH |
|---|---|
| Flight time | N/A |
| Altitude | 35000 |
| Route | PIMOS N869 GALTO UN869 PELAX UB11 MABAP UN869 RUSIK |
| Aircraft | A320/M-SDE3FGHIRWY/LB1 |
Departure
| Time | N/A |
|---|---|
| Airport | Málaga-Costa del Sol Airport (LEMG) |
Arrival
| Time | 2026-05-01 13:43 |
|---|---|
| Airport | Fuerteventura Airport (GCFV) |
| Time | Latitude | Longitude | Altitude | Speed | Heading |
|---|---|---|---|---|---|
| 2026-05-01 12:08 | 35.08885 | -5.82351 | 35141 ft | 414 kts | 224° |
| 2026-05-01 12:09 | 35.04254 | -5.86534 | 35137 ft | 415 kts | 223° |
| 2026-05-01 12:09 | 34.99604 | -5.90715 | 35144 ft | 415 kts | 223° |
| 2026-05-01 12:10 | 34.92626 | -5.96973 | 35142 ft | 415 kts | 223° |
| 2026-05-01 12:11 | 34.85667 | -6.03224 | 35150 ft | 414 kts | 223° |
| 2026-05-01 12:11 | 34.81020 | -6.07391 | 35151 ft | 414 kts | 223° |
| 2026-05-01 12:12 | 34.76407 | -6.11511 | 35153 ft | 414 kts | 223° |
| 2026-05-01 12:12 | 34.71756 | -6.15656 | 35154 ft | 414 kts | 223° |
| 2026-05-01 12:13 | 34.67108 | -6.19794 | 35158 ft | 414 kts | 223° |
| 2026-05-01 12:13 | 34.62467 | -6.23934 | 35156 ft | 414 kts | 222° |
| 2026-05-01 12:14 | 34.57827 | -6.28066 | 35152 ft | 414 kts | 222° |
| 2026-05-01 12:14 | 34.53186 | -6.32191 | 35155 ft | 414 kts | 222° |
| 2026-05-01 12:15 | 34.48530 | -6.36313 | 35150 ft | 414 kts | 222° |
| 2026-05-01 12:15 | 34.43874 | -6.40431 | 35155 ft | 414 kts | 222° |
| 2026-05-01 12:16 | 34.39221 | -6.44550 | 35154 ft | 414 kts | 222° |
| 2026-05-01 12:16 | 34.34561 | -6.48667 | 35150 ft | 415 kts | 222° |
| 2026-05-01 12:17 | 34.29901 | -6.52777 | 35152 ft | 415 kts | 222° |
| 2026-05-01 12:17 | 34.25230 | -6.56886 | 35149 ft | 415 kts | 221° |
| 2026-05-01 12:18 | 34.20581 | -6.60970 | 35142 ft | 416 kts | 221° |
| 2026-05-01 12:18 | 34.15906 | -6.65082 | 35143 ft | 416 kts | 221° |
| 2026-05-01 12:19 | 34.11230 | -6.69183 | 35135 ft | 416 kts | 221° |
| 2026-05-01 12:19 | 34.06535 | -6.73289 | 35138 ft | 416 kts | 221° |
| 2026-05-01 12:20 | 34.01816 | -6.77343 | 35146 ft | 417 kts | 220° |
| 2026-05-01 12:20 | 33.97006 | -6.81272 | 35141 ft | 418 kts | 219° |
| 2026-05-01 12:21 | 33.92171 | -6.85181 | 35145 ft | 418 kts | 219° |
| 2026-05-01 12:21 | 33.87365 | -6.89114 | 35146 ft | 418 kts | 219° |
| 2026-05-01 12:22 | 33.82553 | -6.93064 | 35148 ft | 418 kts | 219° |
| 2026-05-01 12:22 | 33.77743 | -6.97003 | 35149 ft | 418 kts | 219° |
| 2026-05-01 12:23 | 33.72934 | -7.00933 | 35144 ft | 418 kts | 219° |
| 2026-05-01 12:23 | 33.68118 | -7.04861 | 35145 ft | 418 kts | 219° |
| 2026-05-01 12:24 | 33.63324 | -7.08767 | 35145 ft | 418 kts | 219° |
| 2026-05-01 12:24 | 33.58503 | -7.12684 | 35146 ft | 418 kts | 219° |
| 2026-05-01 12:25 | 33.51274 | -7.18558 | 35148 ft | 418 kts | 219° |
| 2026-05-01 12:26 | 33.46461 | -7.22472 | 35147 ft | 418 kts | 219° |
| 2026-05-01 12:26 | 33.39237 | -7.28325 | 35145 ft | 418 kts | 219° |
| 2026-05-01 12:27 | 33.32003 | -7.34171 | 35151 ft | 418 kts | 219° |
| 2026-05-01 12:28 | 33.24769 | -7.39987 | 35148 ft | 418 kts | 219° |
| 2026-05-01 12:29 | 33.17545 | -7.45802 | 35145 ft | 417 kts | 219° |
| 2026-05-01 12:29 | 33.10336 | -7.51560 | 35144 ft | 418 kts | 218° |
| 2026-05-01 12:30 | 33.02813 | -7.56879 | 35135 ft | 420 kts | 215° |
| 2026-05-01 12:31 | 32.97755 | -7.60346 | 35131 ft | 419 kts | 216° |
| 2026-05-01 12:31 | 32.92721 | -7.63860 | 35128 ft | 419 kts | 216° |
| 2026-05-01 12:32 | 32.87705 | -7.67403 | 35128 ft | 419 kts | 216° |
| 2026-05-01 12:32 | 32.80167 | -7.72698 | 35122 ft | 419 kts | 216° |
| 2026-05-01 12:33 | 32.75140 | -7.76215 | 35124 ft | 420 kts | 216° |
| 2026-05-01 12:33 | 32.70107 | -7.79735 | 35120 ft | 420 kts | 216° |
| 2026-05-01 12:34 | 32.65067 | -7.83248 | 35121 ft | 420 kts | 216° |
| 2026-05-01 12:34 | 32.60025 | -7.86763 | 35126 ft | 420 kts | 216° |
| 2026-05-01 12:35 | 32.54979 | -7.90272 | 35118 ft | 420 kts | 216° |
| 2026-05-01 12:35 | 32.49921 | -7.93788 | 35123 ft | 421 kts | 216° |
| 2026-05-01 12:36 | 32.44872 | -7.97300 | 35118 ft | 421 kts | 216° |
| 2026-05-01 12:36 | 32.39839 | -8.00789 | 35121 ft | 421 kts | 215° |
| 2026-05-01 12:37 | 32.34783 | -8.04295 | 35117 ft | 421 kts | 216° |
| 2026-05-01 12:37 | 32.29723 | -8.07790 | 35118 ft | 422 kts | 215° |
| 2026-05-01 12:38 | 32.24657 | -8.11290 | 35109 ft | 422 kts | 215° |
| 2026-05-01 12:38 | 32.19585 | -8.14783 | 35111 ft | 422 kts | 215° |
| 2026-05-01 12:39 | 32.14510 | -8.18278 | 35117 ft | 422 kts | 215° |
| 2026-05-01 12:39 | 32.09427 | -8.21761 | 35117 ft | 423 kts | 215° |
| 2026-05-01 12:40 | 32.04309 | -8.25190 | 35114 ft | 423 kts | 214° |
| 2026-05-01 12:40 | 31.99183 | -8.28608 | 35115 ft | 423 kts | 214° |
| 2026-05-01 12:41 | 31.94066 | -8.32035 | 35114 ft | 423 kts | 214° |
| 2026-05-01 12:41 | 31.88945 | -8.35467 | 35115 ft | 424 kts | 214° |
| 2026-05-01 12:42 | 31.83820 | -8.38896 | 35117 ft | 424 kts | 214° |
| 2026-05-01 12:42 | 31.80792 | -8.40931 | 35112 ft | 424 kts | 214° |
| 2026-05-01 12:43 | 31.75664 | -8.44354 | 35113 ft | 424 kts | 214° |
| 2026-05-01 12:43 | 31.70529 | -8.47765 | 35112 ft | 424 kts | 214° |
| 2026-05-01 12:44 | 31.65421 | -8.51157 | 35106 ft | 424 kts | 214° |
| 2026-05-01 12:45 | 31.55146 | -8.57974 | 35109 ft | 424 kts | 214° |
| 2026-05-01 12:45 | 31.49998 | -8.61389 | 35111 ft | 425 kts | 214° |
| 2026-05-01 12:46 | 31.44859 | -8.64798 | 35115 ft | 425 kts | 214° |
| 2026-05-01 12:46 | 31.39706 | -8.68203 | 35117 ft | 425 kts | 214° |
| 2026-05-01 12:47 | 31.34551 | -8.71609 | 35116 ft | 425 kts | 214° |
| 2026-05-01 12:47 | 31.29394 | -8.75016 | 35116 ft | 426 kts | 214° |
| 2026-05-01 12:48 | 31.25109 | -8.77847 | 35119 ft | 426 kts | 214° |
| 2026-05-01 12:48 | 31.19942 | -8.81245 | 35122 ft | 426 kts | 213° |
| 2026-05-01 12:49 | 31.14772 | -8.84641 | 35121 ft | 426 kts | 213° |
| 2026-05-01 12:49 | 31.09597 | -8.88036 | 35124 ft | 427 kts | 213° |
| 2026-05-01 12:50 | 31.04422 | -8.91427 | 35119 ft | 427 kts | 213° |
| 2026-05-01 12:50 | 30.99237 | -8.94815 | 35121 ft | 427 kts | 213° |
| 2026-05-01 12:51 | 30.94056 | -8.98210 | 35117 ft | 427 kts | 213° |
| 2026-05-01 12:52 | 30.86274 | -9.03291 | 35112 ft | 427 kts | 213° |
| 2026-05-01 12:52 | 30.78492 | -9.08358 | 35098 ft | 428 kts | 213° |
| 2026-05-01 12:53 | 30.70699 | -9.13442 | 35092 ft | 428 kts | 213° |
| 2026-05-01 12:54 | 30.65534 | -9.16795 | 35088 ft | 429 kts | 213° |
| 2026-05-01 12:54 | 30.57711 | -9.21863 | 35090 ft | 429 kts | 213° |
| 2026-05-01 12:55 | 30.49894 | -9.26922 | 35085 ft | 429 kts | 213° |
| 2026-05-01 12:56 | 30.44671 | -9.30293 | 35083 ft | 429 kts | 213° |
| 2026-05-01 12:56 | 30.39447 | -9.33660 | 35085 ft | 430 kts | 213° |
| 2026-05-01 12:57 | 30.34406 | -9.37312 | 35084 ft | 424 kts | 224° |
| 2026-05-01 12:57 | 30.30676 | -9.42429 | 35087 ft | 417 kts | 242° |
| 2026-05-01 12:57 | 30.29399 | -9.45431 | 35089 ft | 415 kts | 247° |
| 2026-05-01 12:58 | 30.27012 | -9.51526 | 35086 ft | 416 kts | 247° |
| 2026-05-01 12:59 | 30.23386 | -9.60648 | 35095 ft | 416 kts | 247° |
| 2026-05-01 12:59 | 30.19764 | -9.69757 | 35110 ft | 416 kts | 247° |
| 2026-05-01 13:00 | 30.16148 | -9.78859 | 35121 ft | 415 kts | 247° |
| 2026-05-01 13:01 | 30.12534 | -9.87914 | 35131 ft | 415 kts | 247° |
| 2026-05-01 13:02 | 30.08898 | -9.97004 | 35129 ft | 415 kts | 247° |
| 2026-05-01 13:07 | 29.82039 | -10.63549 | 35148 ft | 417 kts | 246° |
| 2026-05-01 13:08 | 29.79570 | -10.69586 | 35146 ft | 417 kts | 246° |
| 2026-05-01 13:08 | 29.77106 | -10.75625 | 35153 ft | 417 kts | 246° |
| 2026-05-01 13:09 | 29.74656 | -10.81618 | 35154 ft | 417 kts | 246° |
| 2026-05-01 13:09 | 29.72170 | -10.87692 | 35153 ft | 417 kts | 246° |
| 2026-05-01 13:10 | 29.69696 | -10.93724 | 35157 ft | 417 kts | 246° |
| 2026-05-01 13:10 | 29.67216 | -10.99754 | 35166 ft | 417 kts | 246° |
| 2026-05-01 13:11 | 29.64753 | -11.05744 | 35159 ft | 417 kts | 246° |
| 2026-05-01 13:11 | 29.62265 | -11.11770 | 35170 ft | 417 kts | 246° |
| 2026-05-01 13:12 | 29.59778 | -11.17796 | 35168 ft | 417 kts | 246° |
| 2026-05-01 13:12 | 29.57287 | -11.23819 | 35172 ft | 417 kts | 246° |
| 2026-05-01 13:13 | 29.54795 | -11.29836 | 35171 ft | 417 kts | 246° |
| 2026-05-01 13:13 | 29.52299 | -11.35856 | 35177 ft | 417 kts | 246° |
| 2026-05-01 13:14 | 29.49797 | -11.41880 | 35176 ft | 418 kts | 246° |
| 2026-05-01 13:14 | 29.47293 | -11.47889 | 35176 ft | 418 kts | 246° |
| 2026-05-01 13:15 | 29.44784 | -11.53904 | 35176 ft | 418 kts | 246° |
| 2026-05-01 13:15 | 29.42273 | -11.59919 | 35178 ft | 418 kts | 246° |
| 2026-05-01 13:16 | 29.39756 | -11.65930 | 35178 ft | 418 kts | 245° |
| 2026-05-01 13:16 | 29.37240 | -11.71943 | 35182 ft | 418 kts | 245° |
| 2026-05-01 13:17 | 29.32200 | -11.83957 | 35186 ft | 418 kts | 245° |
| 2026-05-01 13:18 | 29.28406 | -11.92975 | 35191 ft | 418 kts | 245° |
| 2026-05-01 13:18 | 29.25875 | -11.98973 | 35192 ft | 419 kts | 245° |
| 2026-05-01 13:19 | 29.23355 | -12.04943 | 35194 ft | 419 kts | 245° |
| 2026-05-01 13:20 | 29.19549 | -12.13941 | 35196 ft | 419 kts | 245° |
| 2026-05-01 13:20 | 29.17004 | -12.19939 | 35194 ft | 419 kts | 245° |
| 2026-05-01 13:21 | 29.13180 | -12.28929 | 35197 ft | 419 kts | 245° |
| 2026-05-01 13:21 | 29.10628 | -12.34917 | 35080 ft | 419 kts | 245° |
| 2026-05-01 13:22 | 29.09347 | -12.37922 | 34665 ft | 420 kts | 245° |
| 2026-05-01 13:22 | 29.08045 | -12.40931 | 33805 ft | 425 kts | 244° |
| 2026-05-01 13:22 | 29.06712 | -12.43960 | 32949 ft | 428 kts | 244° |
| 2026-05-01 13:22 | 29.05370 | -12.46992 | 32372 ft | 425 kts | 244° |
| 2026-05-01 13:23 | 29.04043 | -12.49994 | 31887 ft | 421 kts | 244° |
| 2026-05-01 13:23 | 29.02736 | -12.52963 | 31348 ft | 417 kts | 244° |
| 2026-05-01 13:23 | 29.01442 | -12.55912 | 30827 ft | 413 kts | 244° |
| 2026-05-01 13:23 | 29.00162 | -12.58831 | 30309 ft | 410 kts | 244° |
| 2026-05-01 13:24 | 28.98894 | -12.61724 | 29740 ft | 405 kts | 244° |
| 2026-05-01 13:24 | 28.97638 | -12.64588 | 29217 ft | 400 kts | 244° |
| 2026-05-01 13:24 | 28.96400 | -12.67408 | 28723 ft | 395 kts | 244° |
| 2026-05-01 13:25 | 28.93959 | -12.72948 | 27731 ft | 386 kts | 243° |
| 2026-05-01 13:25 | 28.92757 | -12.75668 | 27259 ft | 382 kts | 243° |
| 2026-05-01 13:25 | 28.91566 | -12.78360 | 26774 ft | 378 kts | 243° |
| 2026-05-01 13:25 | 28.90386 | -12.81034 | 26318 ft | 375 kts | 243° |
| 2026-05-01 13:26 | 28.89217 | -12.83681 | 25869 ft | 372 kts | 243° |
| 2026-05-01 13:26 | 28.88053 | -12.86311 | 25424 ft | 370 kts | 243° |
| 2026-05-01 13:26 | 28.86898 | -12.88917 | 24994 ft | 367 kts | 243° |
| 2026-05-01 13:26 | 28.85751 | -12.91507 | 24566 ft | 365 kts | 243° |
| 2026-05-01 13:27 | 28.84609 | -12.94086 | 24144 ft | 363 kts | 243° |
| 2026-05-01 13:27 | 28.83492 | -12.96610 | 23736 ft | 360 kts | 243° |
| 2026-05-01 13:27 | 28.81254 | -13.01663 | 22860 ft | 352 kts | 242° |
| 2026-05-01 13:28 | 28.79068 | -13.06582 | 22023 ft | 344 kts | 242° |
| 2026-05-01 13:28 | 28.77996 | -13.08999 | 21614 ft | 340 kts | 242° |
| 2026-05-01 13:29 | 28.75877 | -13.13763 | 20770 ft | 334 kts | 242° |
| 2026-05-01 13:29 | 28.73787 | -13.18452 | 19909 ft | 330 kts | 242° |
| 2026-05-01 13:30 | 28.69658 | -13.27685 | 18119 ft | 324 kts | 241° |
| 2026-05-01 13:31 | 28.67624 | -13.32232 | 17235 ft | 319 kts | 241° |
| 2026-05-01 13:31 | 28.64627 | -13.38944 | 15935 ft | 315 kts | 242° |
| 2026-05-01 13:32 | 28.62638 | -13.43380 | 15076 ft | 314 kts | 242° |
| 2026-05-01 13:33 | 28.59623 | -13.50034 | 13746 ft | 323 kts | 241° |
| 2026-05-01 13:33 | 28.57243 | -13.53276 | 12903 ft | 320 kts | 219° |
| 2026-05-01 13:34 | 28.53744 | -13.56337 | 11985 ft | 318 kts | 217° |
| 2026-05-01 13:34 | 28.50237 | -13.59370 | 11067 ft | 313 kts | 217° |
| 2026-05-01 13:35 | 28.46874 | -13.62285 | 10198 ft | 289 kts | 217° |
| 2026-05-01 13:35 | 28.45297 | -13.63653 | 9701 ft | 282 kts | 217° |
| 2026-05-01 13:35 | 28.42200 | -13.66320 | 8491 ft | 277 kts | 217° |
| 2026-05-01 13:36 | 28.40662 | -13.67631 | 7909 ft | 275 kts | 217° |
| 2026-05-01 13:36 | 28.39138 | -13.68920 | 7486 ft | 267 kts | 217° |
| 2026-05-01 13:36 | 28.36324 | -13.71272 | 7037 ft | 241 kts | 217° |
| 2026-05-01 13:37 | 28.34980 | -13.72385 | 6630 ft | 237 kts | 217° |
| 2026-05-01 13:37 | 28.33695 | -13.73442 | 6459 ft | 218 kts | 217° |
| 2026-05-01 13:37 | 28.32519 | -13.74414 | 6158 ft | 204 kts | 217° |
| 2026-05-01 13:37 | 28.31379 | -13.75355 | 5818 ft | 202 kts | 217° |
| 2026-05-01 13:38 | 28.29739 | -13.77892 | 4729 ft | 206 kts | 257° |
| 2026-05-01 13:38 | 28.29601 | -13.79505 | 4145 ft | 207 kts | 274° |
| 2026-05-01 13:38 | 28.29675 | -13.81135 | 3586 ft | 205 kts | 275° |
| 2026-05-01 13:39 | 28.29756 | -13.82727 | 3009 ft | 199 kts | 276° |
| 2026-05-01 13:39 | 28.30030 | -13.84172 | 2640 ft | 177 kts | 300° |
| 2026-05-01 13:39 | 28.30821 | -13.85154 | 2378 ft | 166 kts | 326° |
| 2026-05-01 13:39 | 28.31806 | -13.85797 | 2173 ft | 158 kts | 338° |
| 2026-05-01 13:40 | 28.32767 | -13.86212 | 2060 ft | 139 kts | 342° |
| 2026-05-01 13:40 | 28.33657 | -13.86541 | 1902 ft | 133 kts | 350° |
| 2026-05-01 13:40 | 28.34575 | -13.86650 | 1768 ft | 133 kts | 357° |
| 2026-05-01 13:40 | 28.35501 | -13.86672 | 1609 ft | 134 kts | 0° |
| 2026-05-01 13:41 | 28.36437 | -13.86638 | 1467 ft | 136 kts | 4° |
| 2026-05-01 13:41 | 28.37369 | -13.86597 | 1356 ft | 136 kts | 2° |
| 2026-05-01 13:41 | 28.38325 | -13.86577 | 1247 ft | 139 kts | 0° |
| 2026-05-01 13:41 | 28.39309 | -13.86571 | 1049 ft | 143 kts | 2° |
| 2026-05-01 13:42 | 28.40300 | -13.86541 | 803 ft | 140 kts | 3° |
| 2026-05-01 13:42 | 28.41241 | -13.86506 | 582 ft | 133 kts | 5° |
| 2026-05-01 13:42 | 28.42151 | -13.86488 | 399 ft | 130 kts | 4° |
| 2026-05-01 13:42 | 28.43048 | -13.86449 | 240 ft | 128 kts | 5° |
| 2026-05-01 13:43 | 28.43930 | -13.86420 | 87 ft | 125 kts | 4° |
| 2026-05-01 13:43 | 28.44729 | -13.86392 | 66 ft | 96 kts | 1° |
| 2026-05-01 13:43 | 28.45219 | -13.86378 | 83 ft | 41 kts | 2° |
| 2026-05-01 13:43 | 28.45359 | -13.86373 | 81 ft | 15 kts | 1° |
| 2026-05-01 13:44 | 28.45409 | -13.86440 | 84 ft | 10 kts | 271° |
| 2026-05-01 13:44 | 28.45411 | -13.86495 | 91 ft | 4 kts | 271° |
| 2026-05-01 13:44 | 28.45411 | -13.86507 | 94 ft | 3 kts | 271° |
| 2026-05-01 13:44 | 28.45407 | -13.86552 | 95 ft | 9 kts | 245° |
| 2026-05-01 13:45 | 28.45320 | -13.86570 | 95 ft | 16 kts | 179° |
| 2026-05-01 13:45 | 28.45198 | -13.86574 | 95 ft | 19 kts | 179° |
| 2026-05-01 13:45 | 28.45100 | -13.86597 | 97 ft | 13 kts | 233° |
| 2026-05-01 13:45 | 28.45099 | -13.86693 | 98 ft | 11 kts | 272° |
| 2026-05-01 13:46 | 28.45064 | -13.86745 | 99 ft | 6 kts | 189° |
| 2026-05-01 13:46 | 28.45049 | -13.86781 | 99 ft | 6 kts | 272° |
| 2026-05-01 13:46 | 28.45050 | -13.86826 | 99 ft | 5 kts | 271° |
| 2026-05-01 13:46 | 28.45051 | -13.86846 | 102 ft | 0 kts | 271° |